Time;durP1;ratioP1;P1;durP2;ratioP2;P2;SDS_P1;SDS_P2;PMS_P1;PMS_P2;Temp;Humidity;BMP_temperature;BMP_pressure;BME280_temperature;BME280_humidity;BME280_pressure;Samples;Min_cycle;Max_cycle;Signal;HPM_P1;HPM_P2
2023/01/06 00:01:07;;;;;;;17.60;9.90;;;;;;;6.25;67.64;95577.16;4954846;28;20039;-75
2023/01/06 00:03:33;;;;;;;20.30;10.77;;;;;;;6.16;67.70;95553.00;4955116;29;20031;-75
2023/01/06 00:06:00;;;;;;;29.75;11.98;;;;;;;6.21;68.04;95562.84;4955388;28;20414;-75
2023/01/06 00:08:26;;;;;;;24.67;10.60;;;;;;;5.75;68.14;95476.94;4955115;28;20045;-76
2023/01/06 00:10:52;;;;;;;20.75;10.73;;;;;;;6.11;67.80;95534.47;4955586;28;20509;-75
2023/01/06 00:13:17;;;;;;;22.65;10.27;;;;;;;6.45;68.47;95582.75;4954538;29;20049;-75
2023/01/06 00:15:42;;;;;;;20.55;10.90;;;;;;;6.15;68.52;95537.44;4955518;29;20417;-75
2023/01/06 00:18:08;;;;;;;18.17;10.18;;;;;;;6.69;68.12;95619.53;4955268;29;20046;-75
2023/01/06 00:20:33;;;;;;;22.02;10.60;;;;;;;6.55;68.00;95600.59;4953974;28;20039;-75
2023/01/06 00:22:59;;;;;;;21.45;10.25;;;;;;;6.72;68.18;95629.56;4971870;28;20125;-75
2023/01/06 00:25:24;;;;;;;22.42;10.02;;;;;;;6.53;67.88;95603.44;4970766;28;20046;-75
2023/01/06 00:27:49;;;;;;;21.02;10.45;;;;;;;6.51;68.24;95596.81;4943364;28;20049;-75
2023/01/06 00:30:15;;;;;;;18.98;9.63;;;;;;;6.87;67.68;95643.00;4975012;28;20512;-75
2023/01/06 00:32:40;;;;;;;18.90;9.45;;;;;;;6.61;67.50;95593.56;4971947;28;20024;-75
2023/01/06 00:35:06;;;;;;;19.38;9.88;;;;;;;6.93;67.11;95629.69;4964443;28;20518;-75
2023/01/06 00:37:31;;;;;;;19.38;11.18;;;;;;;6.88;67.07;95616.41;4958395;28;20122;-75
2023/01/06 00:39:57;;;;;;;18.45;10.48;;;;;;;6.58;66.65;95548.19;4974866;28;20054;-75
2023/01/06 00:42:23;;;;;;;22.42;9.82;;;;;;;6.75;66.26;95564.00;4973097;28;20045;-75
2023/01/06 00:44:49;;;;;;;20.88;8.63;;;;;;;6.75;66.25;95568.47;4973505;28;20523;-75
2023/01/06 00:47:15;;;;;;;20.92;9.38;;;;;;;6.96;65.93;95612.56;4974166;28;20039;-75
2023/01/06 00:49:40;;;;;;;23.58;8.82;;;;;;;6.91;65.77;95602.75;4953611;29;20505;-75
2023/01/06 00:52:06;;;;;;;21.17;9.68;;;;;;;7.22;65.94;95651.50;4972271;28;20044;-75
2023/01/06 00:54:31;;;;;;;15.00;8.80;;;;;;;7.07;66.03;95626.72;4953677;28;20058;-75
2023/01/06 00:56:57;;;;;;;21.20;9.10;;;;;;;7.23;65.97;95649.66;4972049;28;20069;-75
2023/01/06 00:59:25;;;;;;;21.23;9.43;;;;;;;7.27;65.79;95650.78;4939753;28;20051;-75
2023/01/06 01:01:52;;;;;;;20.88;9.98;;;;;;;7.26;65.85;95643.91;4954621;28;20038;-76
2023/01/06 01:04:19;;;;;;;17.67;9.30;;;;;;;6.87;65.86;95575.25;4953206;28;20026;-76
2023/01/06 01:06:46;;;;;;;21.13;9.63;;;;;;;6.85;66.33;95577.34;4947032;29;20039;-76
2023/01/06 01:09:14;;;;;;;17.85;9.38;;;;;;;7.30;66.69;95650.31;4951571;29;20076;-76
2023/01/06 01:14:24;;;;;;;20.38;9.38;;;;;;;7.31;66.71;95628.16;4970910;28;20093;-76
2023/01/06 01:16:49;;;;;;;17.08;9.25;;;;;;;7.47;67.08;95629.19;4957142;28;20474;-76
2023/01/06 01:19:15;;;;;;;17.23;8.45;;;;;;;7.51;67.45;95646.91;4951425;28;20094;-76
2023/01/06 01:21:41;;;;;;;16.23;8.60;;;;;;;7.57;67.40;95653.06;4966502;28;20493;-76
2023/01/06 01:24:07;;;;;;;18.48;8.45;;;;;;;7.64;67.40;95653.69;4970268;28;20485;-76
2023/01/06 01:26:32;;;;;;;12.48;6.97;;;;;;;7.62;67.30;95650.50;4936181;29;20482;-76
2023/01/06 01:28:58;;;;;;;18.08;8.50;;;;;;;7.65;67.38;95644.72;4933834;29;20031;-76
2023/01/06 01:31:23;;;;;;;18.83;8.15;;;;;;;7.61;67.49;95630.44;4952326;28;20131;-76
2023/01/06 01:33:49;;;;;;;20.00;8.13;;;;;;;7.59;67.19;95614.84;4968451;28;20031;-76
2023/01/06 01:36:16;;;;;;;14.95;7.28;;;;;;;7.15;66.88;95569.09;4954108;28;20031;-76
2023/01/06 01:38:42;;;;;;;15.00;7.05;;;;;;;7.21;67.22;95559.41;4952881;28;20057;-76
2023/01/06 01:41:13;;;;;;;13.32;7.82;;;;;;;7.45;67.03;95589.03;4952831;28;20035;-76
2023/01/06 01:43:59;;;;;;;15.93;7.25;;;;;;;7.68;67.03;95610.72;4970596;28;20074;-76
2023/01/06 01:46:35;;;;;;;17.80;6.97;;;;;;;7.67;67.09;95624.16;4954678;28;20114;-76
2023/01/06 01:49:05;;;;;;;14.60;7.18;;;;;;;7.69;67.13;95607.06;4958172;28;20109;-76
2023/01/06 01:51:39;;;;;;;11.55;6.20;;;;;;;7.03;66.64;95475.28;4970450;28;20077;-76
2023/01/06 01:54:11;;;;;;;14.57;7.15;;;;;;;7.63;66.64;95567.63;4970554;28;20023;-76
2023/01/06 01:56:41;;;;;;;;;;;;;;;7.75;66.71;95584.16;4970459;28;20117;-76
2023/01/06 01:59:23;;;;;;;11.68;6.30;;;;;;;7.21;66.92;95501.38;4969942;28;19945;-76
2023/01/06 02:01:50;;;;;;;11.70;6.43;;;;;;;7.64;66.99;95571.84;4970458;28;20027;-76
2023/01/06 02:04:16;;;;;;;11.75;6.43;;;;;;;6.95;66.47;95472.03;4969846;28;20042;-76
2023/01/06 02:06:44;;;;;;;11.23;6.50;;;;;;;7.48;66.79;95559.50;4952797;28;20497;-76
2023/01/06 02:09:16;;;;;;;11.57;6.75;;;;;;;7.79;66.23;95610.84;4954806;28;20481;-76
2023/01/06 02:11:42;;;;;;;13.35;5.75;;;;;;;7.75;66.64;95619.28;4945384;29;20042;-76
2023/01/06 02:14:10;;;;;;;11.43;5.93;;;;;;;7.78;66.50;95618.00;4966168;28;20085;-76
2023/01/06 02:16:52;;;;;;;10.25;5.47;;;;;;;7.78;66.47;95625.13;4973437;28;20444;-76
2023/01/06 02:19:44;;;;;;;15.02;5.97;;;;;;;7.78;66.32;95611.91;4952953;29;20050;-76
2023/01/06 02:22:42;;;;;;;12.68;5.57;;;;;;;7.81;66.28;95627.25;4923463;28;20125;-76
2023/01/06 02:25:22;;;;;;;9.98;4.82;;;;;;;7.84;66.16;95629.41;4954243;28;20043;-76
2023/01/06 02:28:25;;;;;;;9.95;5.47;;;;;;;7.84;66.08;95619.66;4952879;29;20035;-76
2023/01/06 02:31:16;;;;;;;13.70;5.43;;;;;;;7.79;66.23;95626.69;4952352;28;20042;-76
2023/01/06 02:34:12;;;;;;;10.07;4.78;;;;;;;7.80;65.94;95637.00;4951808;28;20031;-76
2023/01/06 02:37:05;;;;;;;7.60;4.93;;;;;;;7.35;65.82;95581.78;4968603;28;20032;-76
2023/01/06 02:39:45;;;;;;;8.90;4.85;;;;;;;7.49;65.91;95572.47;4946825;28;20051;-76
2023/01/06 02:42:16;;;;;;;17.48;5.30;;;;;;;7.74;65.57;95638.78;4953870;28;20031;-76
2023/01/06 02:45:28;;;;;;;9.02;4.53;;;;;;;7.48;65.65;95602.53;4936633;29;20374;-74
2023/01/06 02:48:16;;;;;;;;;;;;;;;7.77;65.31;95626.94;4946776;28;20130;-75
2023/01/06 02:50:50;;;;;;;9.20;4.70;;;;;;;7.73;65.33;95624.00;4956423;28;20314;-75
2023/01/06 02:53:28;;;;;;;11.70;4.90;;;;;;;7.68;65.60;95605.44;4956611;28;20497;-75
2023/01/06 02:55:56;;;;;;;11.80;5.45;;;;;;;7.44;65.41;95572.41;4955225;29;20528;-75
2023/01/06 02:58:37;;;;;;;15.85;5.53;;;;;;;7.72;65.23;95619.75;4955483;28;20572;-75
2023/01/06 03:01:10;;;;;;;13.93;5.75;;;;;;;7.25;65.38;95532.28;4952759;28;20128;-78
2023/01/06 03:03:40;;;;;;;9.57;5.72;;;;;;;7.75;65.26;95597.34;4953642;28;20037;-78
2023/01/06 03:06:10;;;;;;;11.75;5.05;;;;;;;7.47;65.07;95550.81;4953564;28;20035;-78
2023/01/06 03:08:36;;;;;;;10.50;5.68;;;;;;;7.81;64.95;95603.47;4953367;28;20035;-78
2023/01/06 03:11:02;;;;;;;9.50;5.38;;;;;;;7.65;64.48;95603.28;4960170;28;20093;-78
2023/01/06 03:13:36;;;;;;;8.18;4.85;;;;;;;7.30;64.60;95516.56;4953600;28;20498;-78
2023/01/06 03:16:02;;;;;;;13.50;5.75;;;;;;;7.29;64.17;95520.22;4951958;28;20059;-78
2023/01/06 03:18:30;;;;;;;9.95;5.47;;;;;;;7.58;64.36;95568.34;4953104;28;20122;-78
2023/01/06 03:21:00;;;;;;;9.55;5.22;;;;;;;7.75;64.70;95608.72;4951787;28;20478;-78
2023/01/06 03:23:25;;;;;;;14.48;6.10;;;;;;;7.69;64.47;95622.09;4972460;28;20133;-78
2023/01/06 03:25:51;;;;;;;9.13;4.20;;;;;;;7.52;64.37;95581.75;4953185;28;20062;-78
2023/01/06 03:28:17;;;;;;;9.18;4.82;;;;;;;7.69;64.36;95603.63;4954784;28;20050;-78
2023/01/06 03:30:51;;;;;;;10.45;4.97;;;;;;;7.59;64.50;95591.06;4951644;28;20031;-77
2023/01/06 03:33:29;;;;;;;8.40;4.90;;;;;;;7.62;64.55;95610.91;4958493;28;20121;-78
2023/01/06 03:36:48;;;;;;;10.05;5.03;;;;;;;7.64;64.29;95625.44;4972386;28;20505;-78
2023/01/06 03:39:17;;;;;;;8.45;5.05;;;;;;;7.60;64.82;95616.44;4932844;28;20047;-78
2023/01/06 03:44:52;;;;;;;8.05;4.57;;;;;;;7.64;64.62;95632.56;4972146;28;20041;-78
2023/01/06 03:47:32;;;;;;;8.63;4.53;;;;;;;6.61;64.45;95467.06;4967558;28;20049;-78
2023/01/06 03:50:10;;;;;;;15.88;5.13;;;;;;;7.54;64.94;95622.69;4964218;28;20042;-78
2023/01/06 03:52:44;;;;;;;9.65;4.32;;;;;;;7.35;64.11;95593.13;4970185;28;20031;-78
2023/01/06 03:55:15;;;;;;;9.98;4.70;;;;;;;7.65;64.10;95653.44;4971713;28;20062;-78
2023/01/06 03:57:49;;;;;;;7.15;4.43;;;;;;;7.62;64.10;95653.16;4971699;28;20035;-77
2023/01/06 04:00:19;;;;;;;9.93;5.00;;;;;;;7.58;63.97;95647.53;4971653;28;20141;-78
2023/01/06 04:02:45;;;;;;;9.57;5.22;;;;;;;7.59;64.22;95656.25;4954006;28;20104;-78
2023/01/06 04:05:18;;;;;;;9.93;4.85;;;;;;;7.58;64.19;95659.94;4971447;28;20438;-78
2023/01/06 04:07:44;;;;;;;8.00;4.88;;;;;;;7.55;64.18;95687.59;4971755;28;20031;-78
2023/01/06 04:10:11;;;;;;;14.88;6.78;;;;;;;7.38;64.50;95634.06;4954054;28;20556;-78
2023/01/06 04:12:37;;;;;;;10.65;5.35;;;;;;;7.27;64.31;95619.13;4971600;28;20106;-78
2023/01/06 04:15:05;;;;;;;17.15;5.38;;;;;;;7.12;64.46;95598.59;4953937;28;20139;-78
2023/01/06 04:17:30;;;;;;;12.55;5.80;;;;;;;6.90;64.00;95558.19;4971165;28;20035;-78
2023/01/06 04:19:56;;;;;;;16.02;4.93;;;;;;;7.01;63.65;95567.03;4958407;28;20401;-78
2023/01/06 04:22:21;;;;;;;9.90;5.03;;;;;;;7.06;64.08;95569.75;4966385;28;20492;-78
2023/01/06 04:24:47;;;;;;;14.65;5.00;;;;;;;7.28;63.77;95610.97;4970981;28;20038;-78
2023/01/06 04:27:12;;;;;;;7.68;4.43;;;;;;;7.25;63.29;95615.91;4950615;29;20043;-78
2023/01/06 04:29:37;;;;;;;13.55;4.60;;;;;;;7.08;63.51;95617.78;4951964;28;20351;-78
2023/01/06 04:32:03;;;;;;;7.20;4.13;;;;;;;7.27;63.54;95656.06;4953043;28;20031;-78
2023/01/06 04:34:29;;;;;;;11.27;5.15;;;;;;;6.72;63.60;95569.75;4953769;28;20081;-78
2023/01/06 04:36:54;;;;;;;9.80;5.45;;;;;;;6.88;63.29;95616.41;4970935;28;20037;-78
2023/01/06 04:39:20;;;;;;;12.48;5.05;;;;;;;7.12;63.80;95655.81;4953719;28;20042;-78
2023/01/06 04:41:45;;;;;;;9.15;4.72;;;;;;;7.48;63.40;95716.00;4953417;28;20489;-78
2023/01/06 04:44:10;;;;;;;8.40;4.57;;;;;;;7.48;63.56;95715.19;4970916;28;20034;-78
2023/01/06 04:46:36;;;;;;;8.25;3.97;;;;;;;7.47;63.38;95713.63;4970993;28;20053;-78
2023/01/06 04:49:01;;;;;;;7.53;3.90;;;;;;;7.35;63.67;95701.31;4970812;28;20070;-78
2023/01/06 04:51:27;;;;;;;8.73;4.95;;;;;;;7.45;63.62;95719.16;4953169;28;20034;-78
2023/01/06 04:53:52;;;;;;;7.60;3.70;;;;;;;7.48;63.13;95709.94;4969660;28;20077;-78
2023/01/06 04:56:17;;;;;;;8.27;4.10;;;;;;;6.90;63.39;95637.28;4970363;28;20116;-78
2023/01/06 04:58:43;;;;;;;7.65;3.58;;;;;;;6.75;63.49;95635.19;4953161;28;20126;-78
2023/01/06 05:01:11;;;;;;;9.70;4.53;;;;;;;7.39;63.30;95730.66;4970760;28;20490;-78
2023/01/06 05:03:37;;;;;;;7.95;3.65;;;;;;;6.84;63.30;95639.03;4953050;28;20046;-78
2023/01/06 05:06:08;;;;;;;10.05;3.92;;;;;;;7.14;63.08;95709.94;4953281;28;20027;-78
2023/01/06 05:08:35;;;;;;;10.65;4.40;;;;;;;7.49;63.27;95736.09;4943489;28;20145;-78
2023/01/06 05:11:02;;;;;;;11.98;4.15;;;;;;;7.46;63.13;95725.22;4948154;28;20047;-77
2023/01/06 05:13:30;;;;;;;10.48;4.95;;;;;;;7.42;63.16;95719.59;4931516;29;20031;-77
2023/01/06 05:15:55;;;;;;;6.18;3.13;;;;;;;7.43;62.86;95728.34;4951582;28;20027;-78
2023/01/06 05:18:21;;;;;;;10.48;3.60;;;;;;;6.65;63.23;95608.66;4951044;28;20034;-77
2023/01/06 05:20:53;;;;;;;5.50;3.08;;;;;;;7.35;63.07;95734.81;4951726;28;20061;-78
2023/01/06 05:23:20;;;;;;;11.30;3.83;;;;;;;7.28;63.34;95721.78;4951687;28;20044;-78
2023/01/06 05:25:50;;;;;;;10.10;3.85;;;;;;;6.97;63.34;95688.81;4931053;28;20055;-77
2023/01/06 05:28:16;;;;;;;8.63;3.85;;;;;;;7.02;63.29;95696.00;4948607;28;20118;-77
2023/01/06 05:30:41;;;;;;;10.98;4.07;;;;;;;7.36;63.58;95754.88;4919606;28;20660;-77
2023/01/06 05:33:07;;;;;;;9.15;3.90;;;;;;;6.81;63.19;95650.03;4943251;28;20038;-78
2023/01/06 05:35:32;;;;;;;8.50;3.72;;;;;;;6.92;63.43;95680.84;4947825;28;20075;-78
2023/01/06 05:37:58;;;;;;;14.50;4.50;;;;;;;7.36;63.57;95747.75;4957018;28;20042;-78
2023/01/06 05:40:23;;;;;;;11.57;4.95;;;;;;;7.09;63.54;95707.22;4939841;28;20038;-78
2023/01/06 05:42:53;;;;;;;10.60;4.22;;;;;;;7.40;63.52;95761.25;4935823;28;20031;-77
2023/01/06 05:45:19;;;;;;;10.13;4.35;;;;;;;6.23;63.33;95594.22;4942711;28;20545;-79
2023/01/06 05:47:44;;;;;;;12.13;5.07;;;;;;;6.76;63.81;95681.59;4944215;28;20045;-78
2023/01/06 05:50:10;;;;;;;18.15;4.82;;;;;;;7.45;63.56;95769.28;4952686;28;20039;-78
2023/01/06 05:52:35;;;;;;;10.32;4.10;;;;;;;6.73;63.71;95655.69;4961243;28;20089;-79
2023/01/06 05:55:00;;;;;;;7.28;4.05;;;;;;;7.07;63.63;95740.13;4958724;28;20051;-80
2023/01/06 05:57:27;;;;;;;11.00;4.00;;;;;;;6.82;63.47;95685.91;4958804;28;20046;-78
2023/01/06 05:59:52;;;;;;;9.73;4.68;;;;;;;7.31;63.41;95760.09;4938529;28;20420;-80
2023/01/06 06:02:18;;;;;;;8.40;4.05;;;;;;;7.14;63.01;95756.63;4950392;28;20041;-79
2023/01/06 06:04:45;;;;;;;30.60;12.65;;;;;;;7.13;63.34;95737.34;4951818;28;20109;-79
2023/01/06 06:07:10;;;;;;;13.20;5.05;;;;;;;6.91;62.98;95704.78;4952284;28;20098;-82
2023/01/06 06:09:35;;;;;;;10.15;3.72;;;;;;;7.29;62.49;95770.88;4945953;28;20034;-77
2023/01/06 06:12:01;;;;;;;14.43;4.70;;;;;;;6.93;62.74;95724.63;4944614;28;20330;-82
2023/01/06 06:14:26;;;;;;;7.65;3.70;;;;;;;7.15;62.25;95752.94;4931297;28;20110;-81
2023/01/06 06:16:52;;;;;;;11.38;4.75;;;;;;;6.80;62.36;95706.44;4953337;28;20241;-78
2023/01/06 06:19:18;;;;;;;10.70;3.78;;;;;;;6.50;61.66;95666.34;4949870;28;20039;-82
2023/01/06 06:21:43;;;;;;;9.77;3.70;;;;;;;7.34;61.97;95786.78;4933158;28;20059;-78
2023/01/06 06:24:09;;;;;;;7.28;4.10;;;;;;;7.47;61.54;95788.31;4928589;28;20054;-78
2023/01/06 06:26:35;;;;;;;14.00;4.20;;;;;;;6.59;60.92;95671.00;4926593;28;20417;-78
2023/01/06 06:29:01;;;;;;;6.10;3.50;;;;;;;7.42;60.99;95790.06;4924501;28;20054;-78
2023/01/06 06:31:28;;;;;;;8.63;3.78;;;;;;;7.04;60.64;95730.84;4935985;28;20023;-78
2023/01/06 06:33:59;;;;;;;13.98;3.92;;;;;;;7.44;60.82;95791.44;4937013;28;20050;-79
2023/01/06 06:36:25;;;;;;;8.38;3.95;;;;;;;7.49;60.59;95793.34;4931199;28;20043;-79
2023/01/06 06:38:52;;;;;;;6.50;3.50;;;;;;;7.08;60.30;95728.56;4946452;28;20043;-78
2023/01/06 06:41:19;;;;;;;6.82;3.00;;;;;;;7.50;59.97;95808.94;4939801;28;20047;-80
2023/01/06 06:43:45;;;;;;;5.60;3.30;;;;;;;7.00;60.22;95731.56;4938491;28;20540;-79
2023/01/06 06:46:11;;;;;;;10.32;3.67;;;;;;;7.40;59.84;95795.56;4939341;28;20130;-79
2023/01/06 06:48:37;;;;;;;8.93;3.20;;;;;;;7.54;59.90;95801.38;4940309;28;20027;-79
2023/01/06 06:51:11;;;;;;;12.40;3.22;;;;;;;7.06;59.66;95723.50;4928310;28;20472;-78
2023/01/06 06:53:37;;;;;;;7.65;3.35;;;;;;;7.60;59.61;95803.84;4927882;29;20062;-78
2023/01/06 06:56:04;;;;;;;6.53;2.95;;;;;;;7.39;59.35;95766.81;4908889;28;20047;-78
2023/01/06 06:58:29;;;;;;;7.80;3.50;;;;;;;7.26;59.75;95768.69;4938192;28;20045;-80
2023/01/06 07:00:55;;;;;;;8.57;3.60;;;;;;;7.39;59.60;95787.91;4926090;28;20042;-79
2023/01/06 07:03:21;;;;;;;8.23;3.33;;;;;;;7.48;59.10;95794.38;4911126;28;21356;-79
2023/01/06 07:05:49;;;;;;;6.95;3.30;;;;;;;7.03;59.08;95699.44;4928129;28;20121;-78
2023/01/06 07:08:15;;;;;;;6.95;3.95;;;;;;;7.80;59.48;95810.47;4917687;28;20104;-77
2023/01/06 07:10:40;;;;;;;9.38;3.63;;;;;;;7.57;59.23;95798.22;4926395;28;20051;-77
2023/01/06 07:13:06;;;;;;;9.13;4.13;;;;;;;7.80;59.28;95818.41;4903166;28;20039;-82
2023/01/06 07:15:32;;;;;;;7.88;3.60;;;;;;;7.81;59.25;95835.84;4903278;28;20074;-78
2023/01/06 07:18:02;;;;;;;8.82;3.65;;;;;;;7.39;59.27;95757.06;4937109;28;20157;-78
2023/01/06 07:20:28;;;;;;;8.07;3.63;;;;;;;7.86;59.05;95820.88;4933782;28;20065;-78
2023/01/06 07:22:54;;;;;;;9.98;3.40;;;;;;;7.50;58.95;95756.16;4947858;28;20736;-78
2023/01/06 07:25:19;;;;;;;9.02;3.42;;;;;;;7.57;59.28;95777.91;4941260;28;20031;-78
2023/01/06 07:27:45;;;;;;;10.85;3.47;;;;;;;7.88;58.95;95826.72;4919880;28;20038;-78
2023/01/06 07:30:11;;;;;;;8.98;3.65;;;;;;;7.88;58.98;95820.63;4938578;28;20593;-79
2023/01/06 07:32:36;;;;;;;11.43;4.00;;;;;;;7.69;58.51;95836.75;4947456;28;20386;-79
2023/01/06 07:35:02;;;;;;;6.47;3.53;;;;;;;7.75;58.53;95812.00;4949779;28;20042;-79
2023/01/06 07:37:27;;;;;;;5.57;2.55;;;;;;;7.73;58.54;95814.09;4934799;28;20167;-79
2023/01/06 07:39:53;;;;;;;6.00;2.95;;;;;;;7.96;58.14;95831.59;4941678;28;20034;-79
2023/01/06 07:42:18;;;;;;;6.25;3.15;;;;;;;7.85;57.77;95810.56;4948025;28;20252;-80
2023/01/06 07:44:44;;;;;;;6.88;3.13;;;;;;;7.96;57.88;95833.44;4941019;28;20487;-79
2023/01/06 07:47:09;;;;;;;8.73;2.70;;;;;;;7.92;57.87;95841.06;4933190;28;20090;-80
2023/01/06 07:49:35;;;;;;;8.02;3.90;;;;;;;7.29;57.67;95756.88;4948092;28;20468;-82
2023/01/06 07:52:00;;;;;;;15.88;3.20;;;;;;;7.92;58.51;95819.94;4938025;28;20211;-80
2023/01/06 07:54:26;;;;;;;13.38;2.97;;;;;;;7.94;57.84;95831.03;4946382;28;20039;-81
2023/01/06 07:56:51;;;;;;;11.55;3.30;;;;;;;7.97;58.03;95862.28;4928841;28;20050;-81
2023/01/06 07:59:16;;;;;;;7.88;2.75;;;;;;;7.09;58.16;95725.69;4933517;28;20038;-85
2023/01/06 08:01:42;;;;;;;8.95;2.97;;;;;;;7.35;58.22;95766.47;4950037;28;20180;-81
2023/01/06 08:04:07;;;;;;;7.00;3.10;;;;;;;7.24;58.44;95746.25;4936691;28;20045;-88
2023/01/06 08:06:33;;;;;;;8.15;2.55;;;;;;;7.36;57.71;95754.88;4952698;28;20403;-83
2023/01/06 08:08:58;;;;;;;4.47;2.40;;;;;;;7.26;57.66;95741.50;4920224;28;20119;-81
2023/01/06 08:11:24;;;;;;;5.30;2.33;;;;;;;7.35;57.96;95746.16;4939443;28;20553;-79
2023/01/06 08:13:49;;;;;;;13.48;2.40;;;;;;;8.09;57.13;95893.88;4939061;28;20027;-80
2023/01/06 08:16:14;;;;;;;7.38;2.45;;;;;;;8.04;57.82;95899.88;4941915;28;20477;-79
2023/01/06 08:18:40;;;;;;;6.35;2.38;;;;;;;8.07;57.86;95878.28;4943043;28;20038;-79
2023/01/06 08:21:08;;;;;;;5.88;2.70;;;;;;;6.95;57.54;95676.91;4925846;29;20066;-79
2023/01/06 08:23:34;;;;;;;11.35;2.40;;;;;;;8.04;57.43;95856.81;4937830;28;20043;-78
2023/01/06 08:26:09;;;;;;;4.82;2.30;;;;;;;8.18;57.30;95881.06;4936212;28;20097;-77
2023/01/06 08:28:35;;;;;;;4.82;2.22;;;;;;;7.98;57.27;95868.34;4935608;28;20039;-80
2023/01/06 08:31:00;;;;;;;4.70;2.35;;;;;;;8.20;57.42;95868.44;4939399;28;20319;-76
2023/01/06 08:33:26;;;;;;;5.55;2.60;;;;;;;8.25;56.68;95884.34;4935914;28;20031;-79
2023/01/06 08:35:58;;;;;;;6.35;2.13;;;;;;;7.78;56.73;95791.47;4929364;29;20039;-78
2023/01/06 08:38:24;;;;;;;6.47;2.90;;;;;;;7.67;56.65;95782.56;4940479;28;20323;-78
2023/01/06 08:40:53;;;;;;;4.82;2.08;;;;;;;8.02;56.84;95835.91;4936921;28;20034;-78
2023/01/06 08:43:18;;;;;;;12.90;2.33;;;;;;;8.26;56.30;95886.75;4940157;28;20573;-79
2023/01/06 08:45:44;;;;;;;5.25;2.03;;;;;;;7.68;56.83;95789.44;4939646;28;20039;-78
2023/01/06 08:48:09;;;;;;;4.32;1.70;;;;;;;7.97;56.44;95877.31;4927175;28;20051;-79
2023/01/06 08:50:37;;;;;;;6.00;1.92;;;;;;;8.20;56.13;95885.06;4927348;28;20147;-79
2023/01/06 08:53:03;;;;;;;4.90;1.58;;;;;;;7.98;56.12;95831.38;4939919;28;20031;-81
2023/01/06 08:55:28;;;;;;;5.78;2.40;;;;;;;8.27;56.02;95875.16;4919466;28;20512;-82
2023/01/06 08:57:53;;;;;;;4.57;2.17;;;;;;;8.27;56.36;95859.28;4935161;28;20169;-81
2023/01/06 09:00:19;;;;;;;4.43;2.05;;;;;;;8.04;55.95;95809.28;4922405;28;20035;-77
2023/01/06 09:02:44;;;;;;;6.63;1.58;;;;;;;7.77;55.09;95780.09;4917286;28;20257;-78
2023/01/06 09:05:10;;;;;;;7.25;2.33;;;;;;;7.71;55.05;95746.72;4934162;28;20171;-78
2023/01/06 09:07:35;;;;;;;4.25;1.70;;;;;;;8.42;54.77;95850.81;4928104;28;20065;-79
2023/01/06 09:10:00;;;;;;;6.63;1.63;;;;;;;7.50;54.58;95713.94;4924275;28;20090;-80
2023/01/06 09:12:26;;;;;;;8.75;2.13;;;;;;;8.13;55.07;95802.53;4939960;28;20031;-80
2023/01/06 09:14:51;;;;;;;15.38;2.70;;;;;;;8.51;54.56;95850.16;4919553;29;20039;-80
2023/01/06 09:17:17;;;;;;;4.05;1.63;;;;;;;8.13;54.56;95824.47;4931125;28;20051;-78
2023/01/06 09:19:42;;;;;;;7.38;1.80;;;;;;;8.44;54.69;95881.25;4940739;28;20035;-77
2023/01/06 09:22:08;;;;;;;8.20;1.60;;;;;;;7.81;54.42;95812.88;4946070;28;20055;-79
2023/01/06 09:24:33;;;;;;;3.65;1.85;;;;;;;8.17;54.17;95835.34;4944203;28;20516;-79
2023/01/06 09:26:59;;;;;;;4.30;1.42;;;;;;;7.75;53.79;95769.78;4948385;28;20121;-79
2023/01/06 09:29:24;;;;;;;9.45;2.08;;;;;;;7.88;54.52;95781.84;4928060;28;20035;-79
2023/01/06 09:31:49;;;;;;;4.25;1.73;;;;;;;8.39;54.53;95881.16;4925762;28;20332;-79
2023/01/06 09:34:15;;;;;;;16.20;2.55;;;;;;;8.33;54.14;95837.19;4945880;28;20035;-79
2023/01/06 09:36:40;;;;;;;5.25;1.80;;;;;;;8.02;53.95;95783.09;4941663;28;20071;-79
2023/01/06 09:39:06;;;;;;;5.80;1.77;;;;;;;8.29;53.35;95798.28;4934970;28;20479;-79
2023/01/06 09:41:38;;;;;;;5.38;1.92;;;;;;;8.58;53.17;95844.69;4935300;28;20067;-79
2023/01/06 09:44:11;;;;;;;6.93;2.38;;;;;;;8.56;53.73;95801.03;4941878;28;20222;-80
2023/01/06 09:46:41;;;;;;;4.07;1.77;;;;;;;8.69;53.15;95846.44;4935735;28;20042;-82
2023/01/06 09:49:29;;;;;;;5.82;2.03;;;;;;;8.28;52.72;95751.75;4924429;28;20043;-84
2023/01/06 09:52:16;;;;;;;4.03;1.88;;;;;;;8.68;53.27;95820.22;4944380;28;20083;-78
2023/01/06 09:54:57;;;;;;;10.27;2.47;;;;;;;8.77;52.92;95816.13;4916489;28;20062;-83
2023/01/06 09:57:50;;;;;;;4.10;1.60;;;;;;;8.77;52.81;95843.34;4941503;28;20060;-78
2023/01/06 10:00:32;;;;;;;6.75;2.17;;;;;;;8.77;52.80;95830.13;4946697;28;20298;-77
2023/01/06 10:02:58;;;;;;;6.07;2.08;;;;;;;8.70;53.30;95808.34;4938603;28;20081;-77
2023/01/06 10:05:35;;;;;;;5.72;1.88;;;;;;;8.92;52.86;95832.16;4927975;28;20430;-78
2023/01/06 10:08:36;;;;;;;7.10;2.33;;;;;;;8.90;53.11;95794.56;4938788;28;20154;-78
2023/01/06 10:11:19;;;;;;;8.50;2.27;;;;;;;8.87;52.53;95784.47;4944188;28;20074;-78
2023/01/06 10:13:59;;;;;;;6.97;2.30;;;;;;;9.23;52.18;95807.63;4948593;28;20314;-77
2023/01/06 10:16:44;;;;;;;10.98;3.22;;;;;;;9.21;51.85;95795.69;4940998;28;20035;-77
2023/01/06 10:19:44;;;;;;;4.40;1.88;;;;;;;9.21;51.73;95770.03;4945977;28;20204;-77
2023/01/06 10:22:43;;;;;;;4.00;1.77;;;;;;;9.68;51.36;95817.06;4942064;28;20055;-77
2023/01/06 10:25:21;;;;;;;2.95;1.70;;;;;;;10.17;49.51;95806.28;4923113;28;20038;-83
2023/01/06 10:27:58;;;;;;;3.67;1.90;;;;;;;10.70;48.22;95807.94;4922350;28;20038;-78
2023/01/06 10:30:46;;;;;;;5.35;1.90;;;;;;;10.35;46.85;95737.00;4944421;28;20580;-80
2023/01/06 10:33:28;;;;;;;6.65;2.25;;;;;;;10.33;46.28;95734.59;4918578;28;20039;-80
2023/01/06 10:35:55;;;;;;;3.85;1.70;;;;;;;10.77;46.15;95792.59;4930008;28;20026;-79
2023/01/06 10:38:32;;;;;;;6.70;2.30;;;;;;;10.21;46.99;95731.34;4934296;28;20877;-78
2023/01/06 10:41:12;;;;;;;6.70;1.80;;;;;;;10.26;46.83;95749.94;4948120;28;20716;-78
2023/01/06 10:43:37;;;;;;;4.25;1.73;;;;;;;10.28;46.47;95763.72;4945395;28;20040;-79
2023/01/06 10:46:03;;;;;;;5.60;1.77;;;;;;;10.33;46.29;95721.34;4943001;28;20043;-79
2023/01/06 10:48:31;;;;;;;13.90;1.77;;;;;;;10.38;46.53;95725.84;4939683;28;20050;-81
2023/01/06 10:50:56;;;;;;;5.22;1.60;;;;;;;10.82;46.79;95777.50;4950515;28;20034;-78
2023/01/06 10:53:22;;;;;;;4.78;1.75;;;;;;;10.61;46.14;95682.97;4949959;28;20532;-80
2023/01/06 10:55:56;;;;;;;4.45;2.08;;;;;;;10.43;46.02;95725.88;4949027;28;20108;-80
2023/01/06 10:58:41;;;;;;;5.63;2.13;;;;;;;10.76;46.22;95777.72;4948923;28;20039;-79
2023/01/06 11:01:14;;;;;;;4.75;1.85;;;;;;;10.67;46.54;95782.75;4954263;28;20042;-82
2023/01/06 11:03:43;;;;;;;2.83;1.67;;;;;;;10.31;47.11;95733.25;4947411;28;20034;-80
2023/01/06 11:06:30;;;;;;;4.60;1.77;;;;;;;10.46;47.65;95762.47;4935358;28;20051;-81
2023/01/06 11:08:56;;;;;;;9.88;2.55;;;;;;;10.41;47.39;95699.63;4944586;28;20565;-79
2023/01/06 11:11:22;;;;;;;4.70;1.60;;;;;;;10.37;46.91;95751.59;4950917;28;20157;-80
2023/01/06 11:13:52;;;;;;;7.03;2.00;;;;;;;10.37;46.96;95756.91;4931140;28;20023;-77
2023/01/06 11:16:20;;;;;;;3.55;1.77;;;;;;;10.13;47.51;95771.56;4907211;28;20166;-79
2023/01/06 11:19:02;;;;;;;5.68;1.80;;;;;;;9.24;48.05;95684.84;4935099;28;20098;-81
2023/01/06 11:21:42;;;;;;;;;;;;;;;9.86;48.37;95763.69;4905455;28;20554;-83
2023/01/06 11:24:17;;;;;;;6.18;1.50;;;;;;;8.79;48.65;95587.38;4933159;28;20024;-79
2023/01/06 11:26:54;;;;;;;5.15;1.88;;;;;;;9.78;49.02;95737.66;4938162;28;20226;-80
2023/01/06 11:29:34;;;;;;;5.65;2.17;;;;;;;10.04;48.96;95738.66;4937081;28;20153;-79
2023/01/06 11:32:04;;;;;;;5.82;2.20;;;;;;;10.21;48.38;95718.09;4923272;28;20502;-78
2023/01/06 11:34:30;;;;;;;6.65;2.20;;;;;;;9.98;48.08;95713.97;4935313;28;20469;-77
2023/01/06 11:36:57;;;;;;;8.77;2.53;;;;;;;9.72;47.90;95658.44;4939657;28;20454;-78
2023/01/06 11:39:30;;;;;;;4.07;2.10;;;;;;;9.83;48.61;95676.78;4950626;28;20066;-78
2023/01/06 11:42:01;;;;;;;9.00;2.00;;;;;;;10.41;47.86;95773.88;4934507;28;20043;-76
2023/01/06 11:44:30;;;;;;;;;;;;;;;10.31;48.67;95752.59;4936221;28;20054;-77
2023/01/06 11:47:00;;;;;;;4.03;2.25;;;;;;;10.31;48.50;95765.06;4935433;29;19922;-78
2023/01/06 11:49:42;;;;;;;7.63;2.25;;;;;;;10.31;48.99;95752.59;4934750;28;20039;-77
2023/01/06 11:52:16;;;;;;;7.72;1.98;;;;;;;10.21;48.71;95773.78;4948352;28;20043;-77
2023/01/06 11:54:43;;;;;;;2.58;1.75;;;;;;;10.24;48.37;95759.97;4937716;28;20042;-77
2023/01/06 11:57:28;;;;;;;4.28;2.15;;;;;;;10.03;48.70;95760.88;4937939;28;20102;-78